createdAt,value
2015-06-15T00:00:12.614Z,193
2015-06-15T00:00:31.161Z,188
2015-06-15T00:00:50.961Z,192
2015-06-15T00:01:09.461Z,202
2015-06-15T00:01:28.070Z,201
2015-06-15T00:01:46.695Z,208
2015-06-15T00:02:05.244Z,208
2015-06-15T00:02:23.963Z,204
2015-06-15T00:02:42.541Z,206
2015-06-15T00:03:01.121Z,215
2015-06-15T00:03:19.527Z,223
2015-06-15T00:03:38.027Z,214
2015-06-15T00:03:56.449Z,223
2015-06-15T00:04:14.874Z,214
2015-06-15T00:04:33.296Z,213
2015-06-15T00:04:51.843Z,194
2015-06-15T00:05:10.424Z,213
2015-06-15T00:05:29.065Z,220
2015-06-15T00:05:47.627Z,217
2015-06-15T00:06:06.330Z,211
2015-06-15T00:06:24.176Z,216
2015-06-15T00:06:42.817Z,219
2015-06-15T00:07:01.254Z,222
2015-06-15T00:07:19.725Z,219
2015-06-15T00:07:38.350Z,223
2015-06-15T00:07:56.819Z,214
2015-06-15T00:08:15.209Z,227
2015-06-15T00:08:33.822Z,221
2015-06-15T00:08:52.556Z,204
2015-06-15T00:09:10.993Z,204
2015-06-15T00:09:29.386Z,198
2015-06-15T00:09:47.839Z,190
2015-06-15T00:10:06.339Z,200
2015-06-15T00:10:24.761Z,198
2015-06-15T00:10:43.154Z,190
2015-06-15T00:11:01.560Z,204
2015-06-15T00:11:19.997Z,211
2015-06-15T00:11:38.500Z,211
2015-06-15T00:11:57.313Z,220
2015-06-15T00:12:15.844Z,220
2015-06-15T00:12:34.344Z,222
2015-06-15T00:12:52.957Z,230
2015-06-15T00:13:11.535Z,225
2015-06-15T00:13:30.128Z,200
2015-06-15T00:13:48.755Z,213
2015-06-15T00:14:07.349Z,205
2015-06-15T00:14:25.755Z,193
2015-06-15T00:14:44.396Z,206
2015-06-15T00:15:02.820Z,206
2015-06-15T00:15:21.492Z,202
2015-06-15T00:15:39.914Z,198
2015-06-15T00:15:58.636Z,191
2015-06-15T00:16:17.058Z,193
2015-06-15T00:16:35.621Z,196
2015-06-15T00:16:54.152Z,196
2015-06-15T00:17:12.623Z,195
2015-06-15T00:17:31.154Z,191
2015-06-15T00:17:49.763Z,197
2015-06-15T00:18:08.187Z,197
2015-06-15T00:18:26.672Z,183
2015-06-15T00:18:44.937Z,191
2015-06-15T00:19:03.469Z,193
2015-06-15T00:19:21.972Z,186
2015-06-15T00:19:40.393Z,188
2015-06-15T00:19:58.878Z,183
2015-06-15T00:20:17.412Z,185
2015-06-15T00:20:35.881Z,182
2015-06-15T00:20:54.443Z,194
2015-06-15T00:21:12.943Z,185
2015-06-15T00:21:31.398Z,186
2015-06-15T00:21:49.914Z,193
2015-06-15T00:22:08.586Z,194
2015-06-15T00:22:27.042Z,195
2015-06-15T00:22:45.558Z,206
2015-06-15T00:23:04.073Z,203
2015-06-15T00:23:22.870Z,203
2015-06-15T00:23:41.372Z,197
2015-06-15T00:23:59.778Z,193
2015-06-15T00:24:18.341Z,197
2015-06-15T00:24:36.796Z,200
2015-06-15T00:24:55.359Z,205
2015-06-15T00:25:13.109Z,205
2015-06-15T00:25:31.765Z,208
2015-06-15T00:25:50.221Z,206
2015-06-15T00:26:08.658Z,204
2015-06-15T00:26:27.237Z,205
2015-06-15T00:26:45.754Z,205
2015-06-15T00:27:04.395Z,202
2015-06-15T00:27:22.942Z,215
2015-06-15T00:27:41.395Z,220
2015-06-15T00:28:00.007Z,221
2015-06-15T00:28:18.507Z,209
2015-06-15T00:28:36.976Z,210
2015-06-15T00:28:55.665Z,214
2015-06-15T00:29:14.134Z,211
2015-06-15T00:29:33.056Z,207
2015-06-15T00:29:51.462Z,219
2015-06-15T00:30:09.965Z,220
2015-06-15T00:30:28.387Z,220
2015-06-15T00:30:47.090Z,209
2015-06-15T00:31:05.499Z,207
2015-06-15T00:31:23.999Z,216
2015-06-15T00:31:42.702Z,209
2015-06-15T00:32:01.124Z,214
2015-06-15T00:32:19.580Z,215
2015-06-15T00:32:37.986Z,214
2015-06-15T00:32:56.439Z,211
2015-06-15T00:33:14.863Z,211
2015-06-15T00:33:33.457Z,206
2015-06-15T00:33:51.988Z,212
2015-06-15T00:34:10.550Z,211
2015-06-15T00:34:28.991Z,209
2015-06-15T00:34:47.475Z,206
2015-06-15T00:35:05.960Z,208
2015-06-15T00:35:24.634Z,206
2015-06-15T00:35:43.399Z,205
2015-06-15T00:36:01.868Z,199
2015-06-15T00:36:20.399Z,205
2015-06-15T00:36:38.996Z,197
2015-06-15T00:36:57.558Z,199
2015-06-15T00:37:16.168Z,213
2015-06-15T00:37:34.857Z,187
2015-06-15T00:37:53.279Z,215
2015-06-15T00:38:11.857Z,216
2015-06-15T00:38:30.404Z,220
2015-06-15T00:38:48.829Z,216
2015-06-15T00:39:07.267Z,216
2015-06-15T00:39:25.704Z,215
2015-06-15T00:39:44.269Z,211
2015-06-15T00:40:02.909Z,210
2015-06-15T00:40:21.628Z,210
2015-06-15T00:40:40.050Z,205
2015-06-15T00:40:58.459Z,238
2015-06-15T00:41:17.225Z,236
2015-06-15T00:41:35.709Z,236
2015-06-15T00:41:54.227Z,232
2015-06-15T00:42:12.617Z,218
2015-06-15T00:42:31.336Z,206
2015-06-15T00:42:49.883Z,229
2015-06-15T00:43:08.474Z,208
2015-06-15T00:43:26.880Z,218
2015-06-15T00:43:45.583Z,211
2015-06-15T00:44:04.395Z,213
2015-06-15T00:44:22.848Z,256
2015-06-15T00:44:41.348Z,242
2015-06-15T00:44:59.770Z,228
2015-06-15T00:45:18.287Z,234
2015-06-15T00:45:36.944Z,245
2015-06-15T00:45:55.334Z,238
2015-06-15T00:46:13.913Z,246
2015-06-15T00:46:32.553Z,249
2015-06-15T00:46:51.772Z,250
2015-06-15T00:47:10.241Z,246
2015-06-15T00:47:28.694Z,238
2015-06-15T00:47:47.085Z,236
2015-06-15T00:48:05.522Z,240
2015-06-15T00:48:23.998Z,234
2015-06-15T00:48:42.467Z,230
2015-06-15T00:49:01.092Z,221
2015-06-15T00:49:19.483Z,229
2015-06-15T00:49:38.130Z,228
2015-06-15T00:49:56.771Z,225
2015-06-15T00:50:15.521Z,222
2015-06-15T00:50:34.011Z,219
2015-06-15T00:50:52.496Z,213
2015-06-15T00:51:10.886Z,209
2015-06-15T00:51:29.308Z,209
2015-06-15T00:51:47.909Z,209
2015-06-15T00:52:06.331Z,213
2015-06-15T00:52:24.753Z,207
2015-06-15T00:52:43.150Z,206
2015-06-15T00:53:01.728Z,188
2015-06-15T00:53:20.510Z,181
2015-06-15T00:53:38.947Z,182
2015-06-15T00:53:57.481Z,175
2015-06-15T00:54:15.872Z,175
2015-06-15T00:54:34.513Z,187
2015-06-15T00:54:52.908Z,184
2015-06-15T00:55:11.658Z,177
2015-06-15T00:55:30.080Z,176
2015-06-15T00:55:48.627Z,180
2015-06-15T00:56:07.022Z,188
2015-06-15T00:56:25.615Z,201
2015-06-15T00:56:44.006Z,213
2015-06-15T00:57:02.775Z,207
2015-06-15T00:57:21.181Z,214
2015-06-15T00:57:39.712Z,221
2015-06-15T00:57:58.165Z,215
2015-06-15T00:58:16.732Z,218
2015-06-15T00:58:35.122Z,208
2015-06-15T00:58:53.575Z,207
2015-06-15T00:59:12.000Z,216
2015-06-15T00:59:30.657Z,212
2015-06-15T00:59:49.047Z,223
2015-06-15T01:00:07.500Z,226
2015-06-15T01:00:25.973Z,219
2015-06-15T01:00:44.520Z,213
2015-06-15T01:01:02.942Z,208
2015-06-15T01:01:21.335Z,213
2015-06-15T01:01:39.726Z,206
2015-06-15T01:01:58.289Z,218
2015-06-15T01:02:16.679Z,214
2015-06-15T01:02:35.246Z,219
2015-06-15T01:02:53.730Z,192
2015-06-15T01:03:12.246Z,182
2015-06-15T01:03:30.748Z,183
2015-06-15T01:03:49.185Z,195
2015-06-15T01:04:07.826Z,267
2015-06-15T01:04:26.279Z,269
2015-06-15T01:04:44.766Z,273
2015-06-15T01:05:03.344Z,265
2015-06-15T01:05:21.969Z,264
2015-06-15T01:05:40.566Z,258
2015-06-15T01:05:59.004Z,293
2015-06-15T01:06:17.566Z,294
2015-06-15T01:06:36.004Z,289
2015-06-15T01:06:54.788Z,325
2015-06-15T01:07:13.179Z,335
2015-06-15T01:07:31.569Z,380
2015-06-15T01:07:50.010Z,385
2015-06-15T01:08:08.432Z,391
2015-06-15T01:08:26.916Z,389
2015-06-15T01:08:45.603Z,389
2015-06-15T01:09:04.027Z,385
2015-06-15T01:09:22.559Z,387
2015-06-15T01:09:40.949Z,379
2015-06-15T01:09:59.654Z,375
2015-06-15T01:10:18.061Z,389
2015-06-15T01:10:36.639Z,425
2015-06-15T01:10:55.186Z,322
2015-06-15T01:11:13.596Z,389
2015-06-15T01:11:32.065Z,408
2015-06-15T01:11:50.736Z,383
2015-06-15T01:12:09.253Z,366
2015-06-15T01:12:28.128Z,357
2015-06-15T01:12:46.675Z,377
2015-06-15T01:13:05.331Z,359
2015-06-15T01:13:23.819Z,368
2015-06-15T01:13:42.225Z,387
2015-06-15T01:14:00.615Z,413
2015-06-15T01:14:19.087Z,436
2015-06-15T01:14:37.837Z,464
2015-06-15T01:14:56.306Z,419
2015-06-15T01:15:14.884Z,400
2015-06-15T01:15:33.449Z,394
2015-06-15T01:15:51.886Z,424
2015-06-15T01:16:10.495Z,393
2015-06-15T01:16:29.077Z,416
2015-06-15T01:16:47.608Z,436
2015-06-15T01:17:06.045Z,386
2015-06-15T01:17:24.467Z,432
2015-06-15T01:17:42.969Z,401
2015-06-15T01:18:01.563Z,430
2015-06-15T01:18:19.985Z,429
2015-06-15T01:18:38.565Z,431
2015-06-15T01:18:57.127Z,439
2015-06-15T01:19:15.502Z,429
2015-06-15T01:19:33.877Z,397
2015-06-15T01:19:52.271Z,427
2015-06-15T01:20:10.646Z,412
2015-06-15T01:20:29.130Z,422
2015-06-15T01:20:47.727Z,415
2015-06-15T01:21:06.118Z,431
2015-06-15T01:21:24.602Z,414
2015-06-15T01:21:42.977Z,372
2015-06-15T01:22:01.401Z,411
2015-06-15T01:22:19.917Z,412
2015-06-15T01:22:38.448Z,400
2015-06-15T01:22:56.825Z,403
2015-06-15T01:23:15.216Z,457
2015-06-15T01:23:33.809Z,401
2015-06-15T01:23:52.419Z,405
2015-06-15T01:24:11.015Z,369
2015-06-15T01:24:29.422Z,409
2015-06-15T01:24:48.094Z,398
2015-06-15T01:25:06.534Z,396
2015-06-15T01:25:24.925Z,389
2015-06-15T01:25:43.503Z,384
2015-06-15T01:26:01.784Z,411
2015-06-15T01:26:20.255Z,394
2015-06-15T01:26:38.989Z,397
2015-06-15T01:26:57.458Z,506
2015-06-15T01:27:16.022Z,422
2015-06-15T01:27:34.647Z,472
2015-06-15T01:27:53.397Z,455
2015-06-15T01:28:11.804Z,452
2015-06-15T01:28:30.510Z,449
2015-06-15T01:28:48.979Z,437
2015-06-15T01:29:07.400Z,428
2015-06-15T01:29:25.872Z,438
2015-06-15T01:29:44.310Z,424
2015-06-15T01:30:02.747Z,403
2015-06-15T01:30:21.232Z,395
2015-06-15T01:30:39.812Z,358
2015-06-15T01:30:58.452Z,353
2015-06-15T01:31:16.921Z,375
2015-06-15T01:31:35.329Z,393
2015-06-15T01:31:53.892Z,423
2015-06-15T01:32:12.486Z,367
2015-06-15T01:32:30.876Z,402
2015-06-15T01:32:49.270Z,399
2015-06-15T01:33:07.707Z,387
2015-06-15T01:33:26.129Z,404
2015-06-15T01:33:44.632Z,418
2015-06-15T01:34:03.070Z,405
2015-06-15T01:34:21.460Z,396
2015-06-15T01:34:39.945Z,440
2015-06-15T01:34:58.540Z,402
2015-06-15T01:35:17.165Z,406
2015-06-15T01:35:35.572Z,415
2015-06-15T01:35:54.137Z,434
2015-06-15T01:36:12.575Z,433
2015-06-15T01:36:30.981Z,426
2015-06-15T01:36:49.450Z,478
2015-06-15T01:37:07.905Z,366
2015-06-15T01:37:26.311Z,397
2015-06-15T01:37:45.061Z,408
2015-06-15T01:38:03.454Z,402
2015-06-15T01:38:21.454Z,403
2015-06-15T01:38:39.876Z,413
2015-06-15T01:38:58.282Z,437
2015-06-15T01:39:16.878Z,388
2015-06-15T01:39:35.268Z,405
2015-06-15T01:39:53.737Z,450
2015-06-15T01:40:12.272Z,402
2015-06-15T01:40:30.710Z,410
2015-06-15T01:40:49.194Z,415
2015-06-15T01:41:07.710Z,430
2015-06-15T01:41:26.102Z,432
2015-06-15T01:41:44.868Z,439
2015-06-15T01:42:03.274Z,432
2015-06-15T01:42:21.870Z,434
2015-06-15T01:42:40.323Z,438
2015-06-15T01:42:58.823Z,415
2015-06-15T01:43:17.448Z,396
2015-06-15T01:43:36.059Z,408
2015-06-15T01:43:54.575Z,411
2015-06-15T01:44:13.106Z,427
2015-06-15T01:44:31.657Z,440
2015-06-15T01:44:50.048Z,499
2015-06-15T01:45:08.657Z,437
2015-06-15T01:45:27.079Z,416
2015-06-15T01:45:45.830Z,462
2015-06-15T01:46:04.580Z,413
2015-06-15T01:46:23.033Z,451
2015-06-15T01:46:41.427Z,462
2015-06-15T01:46:59.958Z,519
2015-06-15T01:47:18.380Z,458
2015-06-15T01:47:36.896Z,465
2015-06-15T01:47:55.366Z,517
2015-06-15T01:48:13.773Z,455
2015-06-15T01:48:32.179Z,467
2015-06-15T01:48:50.683Z,441
2015-06-15T01:49:09.120Z,479
2015-06-15T01:49:27.527Z,502
2015-06-15T01:49:46.042Z,447
2015-06-15T01:50:04.434Z,465
2015-06-15T01:50:22.871Z,464
2015-06-15T01:50:41.637Z,454
2015-06-15T01:51:00.249Z,448
2015-06-15T01:51:18.999Z,423
2015-06-15T01:51:37.406Z,488
2015-06-15T01:51:56.062Z,439
2015-06-15T01:52:14.580Z,458
2015-06-15T01:52:32.971Z,454
2015-06-15T01:52:51.580Z,459
2015-06-15T01:53:09.973Z,436
2015-06-15T01:53:28.426Z,441
2015-06-15T01:53:46.848Z,429
2015-06-15T01:54:05.254Z,428
2015-06-15T01:54:23.851Z,422
2015-06-15T01:54:42.289Z,422
2015-06-15T01:55:00.757Z,428
2015-06-15T01:55:19.447Z,435
2015-06-15T01:55:37.900Z,413
2015-06-15T01:55:56.337Z,415
2015-06-15T01:56:14.978Z,415
2015-06-15T01:56:33.403Z,431
2015-06-15T01:56:51.840Z,425
2015-06-15T01:57:10.294Z,373
2015-06-15T01:57:28.717Z,388
2015-06-15T01:57:47.202Z,404
2015-06-15T01:58:05.702Z,383
2015-06-15T01:58:24.186Z,390
2015-06-15T01:58:42.611Z,385
2015-06-15T01:59:01.049Z,454
2015-06-15T01:59:19.439Z,418
2015-06-15T01:59:38.035Z,417
2015-06-15T01:59:56.629Z,456
2015-06-15T02:00:15.129Z,397
2015-06-15T02:00:33.551Z,376
2015-06-15T02:00:52.163Z,421
2015-06-15T02:01:10.772Z,410
2015-06-15T02:01:29.366Z,438
2015-06-15T02:01:47.774Z,402
2015-06-15T02:02:06.399Z,414
2015-06-15T02:02:24.899Z,427
2015-06-15T02:02:43.477Z,416
2015-06-15T02:03:01.965Z,421
2015-06-15T02:03:20.371Z,422
2015-06-15T02:03:38.762Z,428
2015-06-15T02:03:57.342Z,434
2015-06-15T02:04:15.795Z,456
2015-06-15T02:04:34.467Z,425
2015-06-15T02:04:53.061Z,437
2015-06-15T02:05:11.688Z,438
2015-06-15T02:05:30.188Z,434
2015-06-15T02:05:48.859Z,430
2015-06-15T02:06:07.253Z,417
2015-06-15T02:06:25.941Z,439
2015-06-15T02:06:44.331Z,452
2015-06-15T02:07:03.128Z,435
2015-06-15T02:07:21.756Z,430
2015-06-15T02:07:40.256Z,427
2015-06-15T02:07:59.006Z,426
2015-06-15T02:08:17.883Z,414
2015-06-15T02:08:36.352Z,433
2015-06-15T02:08:54.946Z,408
2015-06-15T02:09:13.383Z,408
2015-06-15T02:09:31.980Z,415
2015-06-15T02:09:50.574Z,469
2015-06-15T02:10:09.152Z,476
2015-06-15T02:10:27.560Z,463
2015-06-15T02:10:46.201Z,473
2015-06-15T02:11:04.654Z,479
2015-06-15T02:11:23.091Z,476
2015-06-15T02:11:41.484Z,482
2015-06-15T02:11:59.937Z,484
2015-06-15T02:12:18.359Z,472
2015-06-15T02:12:36.924Z,479
2015-06-15T02:12:55.362Z,495
2015-06-15T02:13:13.424Z,471
2015-06-15T02:13:31.815Z,483
2015-06-15T02:13:50.209Z,471
2015-06-15T02:14:12.505Z,475
2015-06-15T02:14:31.052Z,471
2015-06-15T02:14:49.461Z,472
2015-06-15T02:15:08.242Z,470
2015-06-15T02:15:26.711Z,458
2015-06-15T02:15:45.353Z,462
2015-06-15T02:16:04.009Z,467
2015-06-15T02:16:21.853Z,463
2015-06-15T02:16:40.197Z,459
2015-06-15T02:16:58.559Z,471
2015-06-15T02:17:16.919Z,472
2015-06-15T02:17:35.216Z,473
2015-06-15T02:17:53.718Z,471
2015-06-15T02:18:12.061Z,471
2015-06-15T02:18:30.405Z,469
2015-06-15T02:18:48.889Z,481
2015-06-15T02:19:07.439Z,470
2015-06-15T02:19:25.392Z,470
2015-06-15T02:19:43.908Z,473
2015-06-15T02:20:02.223Z,465
2015-06-15T02:20:20.894Z,463
2015-06-15T02:20:39.207Z,467
2015-06-15T02:20:57.004Z,469
2015-06-15T02:21:15.351Z,471
2015-06-15T02:21:33.710Z,476
2015-06-15T02:21:52.226Z,461
2015-06-15T02:22:10.806Z,465
2015-06-15T02:22:29.181Z,479
2015-06-15T02:22:47.478Z,465
2015-06-15T02:23:05.993Z,481
2015-06-15T02:23:24.370Z,482
2015-06-15T02:23:42.792Z,488
2015-06-15T02:24:00.683Z,491
2015-06-15T02:24:19.186Z,486
2015-06-15T02:24:37.561Z,491
2015-06-15T02:24:55.858Z,489
2015-06-15T02:25:14.217Z,489
2015-06-15T02:25:32.657Z,487
2015-06-15T02:25:51.298Z,488
2015-06-15T02:26:09.673Z,474
2015-06-15T02:26:28.050Z,490
2015-06-15T02:26:46.456Z,473
2015-06-15T02:27:05.081Z,480
2015-06-15T02:27:23.581Z,482
2015-06-15T02:27:41.974Z,478
2015-06-15T02:28:00.396Z,469
2015-06-15T02:28:18.724Z,467
2015-06-15T02:28:37.086Z,480
2015-06-15T02:28:55.539Z,486
2015-06-15T02:29:13.899Z,488
2015-06-15T02:29:32.258Z,486
2015-06-15T02:29:50.604Z,471
2015-06-15T02:30:09.104Z,475
2015-06-15T02:30:27.526Z,476
2015-06-15T02:30:45.825Z,475
2015-06-15T02:31:04.262Z,469
2015-06-15T02:31:22.637Z,475
2015-06-15T02:31:40.997Z,476
2015-06-15T02:31:59.484Z,486
2015-06-15T02:32:17.781Z,464
2015-06-15T02:32:36.406Z,467
2015-06-15T02:32:54.940Z,459
2015-06-15T02:33:13.721Z,463
2015-06-15T02:33:32.206Z,461
2015-06-15T02:33:50.612Z,467
2015-06-15T02:34:08.958Z,463
2015-06-15T02:34:27.348Z,463
2015-06-15T02:34:45.130Z,472
2015-06-15T02:35:03.539Z,482
2015-06-15T02:35:21.883Z,462
2015-06-15T02:35:40.211Z,470
2015-06-15T02:35:58.633Z,469
2015-06-15T02:36:17.056Z,470
2015-06-15T02:36:35.353Z,460
2015-06-15T02:36:53.869Z,470
2015-06-15T02:37:12.278Z,469
2015-06-15T02:37:30.591Z,473
2015-06-15T02:37:48.966Z,467
2015-06-15T02:38:07.294Z,466
2015-06-15T02:38:25.655Z,471
2015-06-15T02:38:44.061Z,459
2015-06-15T02:39:02.421Z,463
2015-06-15T02:39:20.908Z,464
2015-06-15T02:39:39.205Z,462
2015-06-15T02:39:57.814Z,458
2015-06-15T02:40:15.799Z,463
2015-06-15T02:40:33.551Z,462
2015-06-15T02:40:52.145Z,463
2015-06-15T02:41:10.676Z,464
2015-06-15T02:41:28.975Z,464
2015-06-15T02:41:47.490Z,463
2015-06-15T02:42:05.943Z,461
2015-06-15T02:42:24.256Z,468
2015-06-15T02:42:42.556Z,465
2015-06-15T02:43:00.993Z,462
2015-06-15T02:43:19.384Z,455
2015-06-15T02:43:37.715Z,470
2015-06-15T02:43:56.043Z,469
2015-06-15T02:44:13.793Z,466
2015-06-15T02:44:32.278Z,468
2015-06-15T02:44:50.670Z,472
2015-06-15T02:45:09.030Z,461
2015-06-15T02:45:27.514Z,467
2015-06-15T02:45:45.845Z,472
2015-06-15T02:46:04.392Z,462
2015-06-15T02:46:22.704Z,464
2015-06-15T02:46:41.033Z,465
2015-06-15T02:46:59.394Z,476
2015-06-15T02:47:17.300Z,470
2015-06-15T02:47:35.800Z,469
2015-06-15T02:47:54.162Z,472
2015-06-15T02:48:12.458Z,470
2015-06-15T02:48:30.755Z,466
2015-06-15T02:48:48.615Z,465
2015-06-15T02:49:07.102Z,461
2015-06-15T02:49:25.415Z,468
2015-06-15T02:49:43.946Z,471
2015-06-15T02:50:02.245Z,475
2015-06-15T02:50:20.729Z,474
2015-06-15T02:50:39.120Z,474
2015-06-15T02:50:57.604Z,472
2015-06-15T02:51:16.045Z,471
2015-06-15T02:51:34.451Z,467
2015-06-15T02:51:52.888Z,473
2015-06-15T02:52:11.390Z,467
2015-06-15T02:52:29.687Z,476
2015-06-15T02:52:47.984Z,478
2015-06-15T02:53:06.562Z,480
2015-06-15T02:53:24.908Z,478
2015-06-15T02:53:43.549Z,481
2015-06-15T02:54:01.877Z,471
2015-06-15T02:54:20.505Z,471
2015-06-15T02:54:38.927Z,468
2015-06-15T02:54:57.411Z,479
2015-06-15T02:55:15.911Z,471
2015-06-15T02:55:34.383Z,469
2015-06-15T02:55:52.820Z,470
2015-06-15T02:56:11.242Z,472
2015-06-15T02:56:29.650Z,472
2015-06-15T02:56:48.182Z,471
2015-06-15T02:57:06.619Z,469
2015-06-15T02:57:24.994Z,481
2015-06-15T02:57:43.481Z,478
2015-06-15T02:58:01.841Z,466
2015-06-15T02:58:20.310Z,470
2015-06-15T02:58:38.718Z,466
2015-06-15T02:58:57.390Z,472
2015-06-15T02:59:16.140Z,470
2015-06-15T02:59:34.499Z,484
2015-06-15T02:59:52.985Z,477
2015-06-15T03:00:11.470Z,475
2015-06-15T03:00:29.907Z,481
2015-06-15T03:01:11.786Z,475
2015-06-15T03:01:30.255Z,468
2015-06-15T03:01:48.724Z,476
2015-06-15T03:02:07.023Z,462
2015-06-15T03:02:25.491Z,469
2015-06-15T03:02:43.945Z,470
2015-06-15T03:03:02.320Z,465
2015-06-15T03:03:20.666Z,470
2015-06-15T03:03:39.026Z,470
2015-06-15T03:03:57.401Z,470
2015-06-15T03:04:15.792Z,472
2015-06-15T03:04:34.105Z,475
2015-06-15T03:04:52.714Z,475
2015-06-15T03:05:11.199Z,478
2015-06-15T03:05:29.656Z,476
2015-06-15T03:05:47.984Z,476
2015-06-15T03:06:06.281Z,476
2015-06-15T03:06:24.658Z,478
2015-06-15T03:06:43.048Z,472
2015-06-15T03:07:01.376Z,470
2015-06-15T03:07:19.767Z,468
2015-06-15T03:07:38.144Z,471
2015-06-15T03:07:56.472Z,466
2015-06-15T03:08:14.972Z,470
2015-06-15T03:08:33.350Z,470
2015-06-15T03:08:51.725Z,478
2015-06-15T03:09:10.178Z,483
2015-06-15T03:09:28.647Z,480
2015-06-15T03:09:46.946Z,474
2015-06-15T03:10:05.258Z,478
2015-06-15T03:10:23.649Z,483
2015-06-15T03:10:42.010Z,470
2015-06-15T03:11:00.370Z,477
2015-06-15T03:11:19.026Z,470
2015-06-15T03:11:37.401Z,475
2015-06-15T03:11:55.827Z,471
2015-06-15T03:12:14.468Z,471
2015-06-15T03:12:32.796Z,475
2015-06-15T03:12:51.375Z,464
2015-06-15T03:13:09.859Z,462
2015-06-15T03:13:28.156Z,466
2015-06-15T03:13:46.453Z,467
2015-06-15T03:14:04.785Z,467
2015-06-15T03:14:23.238Z,461
2015-06-15T03:14:41.613Z,471
2015-06-15T03:15:00.006Z,474
2015-06-15T03:15:18.459Z,460
2015-06-15T03:15:36.896Z,463
2015-06-15T03:15:55.193Z,461
2015-06-15T03:16:13.055Z,468
2015-06-15T03:16:31.492Z,459
2015-06-15T03:16:49.820Z,464
2015-06-15T03:17:08.605Z,467
2015-06-15T03:17:26.901Z,464
2015-06-15T03:17:45.355Z,474
2015-06-15T03:18:03.839Z,470
2015-06-15T03:18:22.311Z,473
2015-06-15T03:18:40.764Z,471
2015-06-15T03:18:59.061Z,463
2015-06-15T03:19:17.062Z,482
2015-06-15T03:19:35.359Z,483
2015-06-15T03:19:53.687Z,480
2015-06-15T03:20:12.077Z,483
2015-06-15T03:20:30.362Z,467
2015-06-15T03:20:48.737Z,485
2015-06-15T03:21:07.174Z,479
2015-06-15T03:21:25.785Z,479
2015-06-15T03:21:44.114Z,476
2015-06-15T03:22:02.410Z,482
2015-06-15T03:22:20.723Z,479
2015-06-15T03:22:39.101Z,480
2015-06-15T03:22:57.429Z,476
2015-06-15T03:23:16.054Z,477
2015-06-15T03:23:34.447Z,477
2015-06-15T03:23:52.978Z,482
2015-06-15T03:24:11.306Z,482
2015-06-15T03:24:29.103Z,483
2015-06-15T03:24:47.418Z,488
2015-06-15T03:25:05.700Z,485
2015-06-15T03:25:24.059Z,485
2015-06-15T03:25:42.390Z,466
2015-06-15T03:26:00.687Z,485
2015-06-15T03:26:19.078Z,483
2015-06-15T03:26:37.421Z,487
2015-06-15T03:26:55.939Z,486
2015-06-15T03:27:14.220Z,491
2015-06-15T03:27:32.705Z,499
2015-06-15T03:27:51.035Z,499
2015-06-15T03:28:08.816Z,504
2015-06-15T03:28:27.129Z,499
2015-06-15T03:28:45.519Z,500
2015-06-15T03:29:03.835Z,521
2015-06-15T03:29:22.241Z,523
2015-06-15T03:29:40.632Z,524
2015-06-15T03:29:58.384Z,530
2015-06-15T03:30:16.805Z,532
2015-06-15T03:30:35.134Z,532
2015-06-15T03:30:53.587Z,532
2015-06-15T03:31:11.901Z,529
2015-06-15T03:31:30.464Z,530
2015-06-15T03:31:48.745Z,531
2015-06-15T03:32:07.201Z,532
2015-06-15T03:32:25.560Z,533
2015-06-15T03:32:43.857Z,533
2015-06-15T03:33:02.529Z,536
2015-06-15T03:33:21.204Z,536
2015-06-15T03:33:39.876Z,536
2015-06-15T03:33:58.157Z,537
2015-06-15T03:34:16.519Z,540
2015-06-15T03:34:35.081Z,536
2015-06-15T03:34:53.378Z,536
2015-06-15T03:35:11.956Z,538
2015-06-15T03:35:30.286Z,534
2015-06-15T03:35:48.614Z,537
2015-06-15T03:36:06.927Z,537
2015-06-15T03:36:25.461Z,540
2015-06-15T03:36:43.742Z,543
2015-06-15T03:37:02.149Z,542
2015-06-15T03:37:20.524Z,542
2015-06-15T03:37:38.823Z,544
2015-06-15T03:37:57.214Z,544
2015-06-15T03:38:15.542Z,551
2015-06-15T03:38:34.185Z,549
2015-06-15T03:38:52.482Z,551
2015-06-15T03:39:10.841Z,551
2015-06-15T03:39:29.169Z,551
2015-06-15T03:39:47.593Z,552
2015-06-15T03:40:05.906Z,552
2015-06-15T03:40:24.624Z,553
2015-06-15T03:40:42.924Z,555
2015-06-15T03:41:01.362Z,556
2015-06-15T03:41:19.815Z,566
2015-06-15T03:41:38.205Z,563
2015-06-15T03:41:56.521Z,563
2015-06-15T03:42:14.974Z,570
2015-06-15T03:42:33.537Z,567
2015-06-15T03:42:51.929Z,569
2015-06-15T03:43:09.898Z,571
2015-06-15T03:43:28.320Z,570
2015-06-15T03:43:46.851Z,573
2015-06-15T03:44:05.353Z,575
2015-06-15T03:44:23.681Z,576
2015-06-15T03:44:41.962Z,576
2015-06-15T03:45:00.294Z,576
2015-06-15T03:45:18.809Z,579
2015-06-15T03:45:37.387Z,579
2015-06-15T03:45:57.262Z,580
2015-06-15T03:46:15.592Z,580
2015-06-15T03:46:33.561Z,582
2015-06-15T03:46:51.905Z,585
2015-06-15T03:47:10.376Z,581
2015-06-15T03:47:28.782Z,579
2015-06-15T03:47:46.594Z,580
2015-06-15T03:48:04.876Z,581
2015-06-15T03:48:22.723Z,579
2015-06-15T03:48:41.020Z,578
2015-06-15T03:48:59.317Z,580
2015-06-15T03:49:17.835Z,585
2015-06-15T03:49:36.132Z,584
2015-06-15T03:49:54.413Z,583
2015-06-15T03:50:12.804Z,583
2015-06-15T03:50:31.088Z,580
2015-06-15T03:50:49.494Z,580
2015-06-15T03:51:07.822Z,582
2015-06-15T03:51:26.465Z,585
2015-06-15T03:51:44.746Z,586
2015-06-15T03:52:03.230Z,588
2015-06-15T03:52:21.527Z,589
2015-06-15T03:52:39.857Z,590
2015-06-15T03:52:58.686Z,597
2015-06-15T03:53:16.967Z,593
2015-06-15T03:53:35.250Z,595
2015-06-15T03:53:53.688Z,596
2015-06-15T03:54:11.984Z,596
2015-06-15T03:54:30.438Z,595
2015-06-15T03:54:48.816Z,599
2015-06-15T03:55:07.159Z,601
2015-06-15T03:55:25.534Z,601
2015-06-15T03:55:43.959Z,602
2015-06-15T03:56:02.350Z,604
2015-06-15T03:56:20.647Z,607
2015-06-15T03:56:39.178Z,608
2015-06-15T03:56:57.680Z,606
2015-06-15T03:57:16.008Z,610
2015-06-15T03:57:34.524Z,610
2015-06-15T03:57:53.011Z,611
2015-06-15T03:58:11.355Z,611
2015-06-15T03:58:29.933Z,614
2015-06-15T03:58:48.214Z,617
2015-06-15T03:59:06.810Z,618
2015-06-15T03:59:25.122Z,619
2015-06-15T03:59:43.716Z,621
2015-06-15T04:00:02.046Z,623
2015-06-15T04:00:20.515Z,628
2015-06-15T04:00:38.937Z,624
2015-06-15T04:00:57.562Z,631
2015-06-15T04:01:16.252Z,635
2015-06-15T04:01:34.534Z,638
2015-06-15T04:01:52.893Z,643
2015-06-15T04:02:11.473Z,643
2015-06-15T04:02:29.754Z,646
2015-06-15T04:02:48.145Z,650
2015-06-15T04:03:06.583Z,655
2015-06-15T04:03:25.023Z,656
2015-06-15T04:03:43.601Z,664
2015-06-15T04:04:01.929Z,665
2015-06-15T04:04:20.384Z,667
2015-06-15T04:04:38.541Z,670
2015-06-15T04:04:57.384Z,674
2015-06-15T04:05:15.963Z,676
2015-06-15T04:05:34.466Z,677
2015-06-15T04:05:52.872Z,678
2015-06-15T04:06:11.200Z,680
2015-06-15T04:06:29.561Z,683
2015-06-15T04:06:48.155Z,684
2015-06-15T04:07:06.530Z,687
2015-06-15T04:07:24.858Z,689
2015-06-15T04:07:43.549Z,691
2015-06-15T04:08:01.986Z,694
2015-06-15T04:08:20.267Z,695
2015-06-15T04:08:38.692Z,697
2015-06-15T04:08:56.974Z,699
2015-06-15T04:09:15.458Z,700
2015-06-15T04:09:33.192Z,696
2015-06-15T04:09:51.585Z,700
2015-06-15T04:10:10.179Z,702
2015-06-15T04:10:28.663Z,703
2015-06-15T04:10:47.103Z,705
2015-06-15T04:11:05.446Z,707
2015-06-15T04:11:23.274Z,708
2015-06-15T04:11:41.759Z,710
2015-06-15T04:11:59.606Z,711
2015-06-15T04:12:17.902Z,712
2015-06-15T04:12:36.246Z,713
2015-06-15T04:12:54.561Z,713
2015-06-15T04:13:13.076Z,714
2015-06-15T04:13:31.529Z,715
2015-06-15T04:13:49.920Z,717
2015-06-15T04:14:08.203Z,717
2015-06-15T04:14:26.547Z,718
2015-06-15T04:14:44.953Z,718